createdAt,value
2023-05-05T00:00:54.719Z,56.0
2023-05-05T00:05:54.718Z,57.5
2023-05-05T00:10:54.727Z,57.5
2023-05-05T00:15:54.723Z,58.0
2023-05-05T00:20:54.720Z,58.0
2023-05-05T00:25:54.715Z,58.5
2023-05-05T00:30:54.769Z,58.5
2023-05-05T00:35:54.736Z,58.5
2023-05-05T00:40:54.745Z,59.0
2023-05-05T00:45:54.736Z,59.5
2023-05-05T00:50:54.740Z,60.0
2023-05-05T00:55:54.739Z,61.5
2023-05-05T01:00:54.763Z,63.5
2023-05-05T01:05:54.750Z,66.5
2023-05-05T01:10:54.760Z,68.5
2023-05-05T01:15:54.765Z,68.5
2023-05-05T01:20:54.748Z,71.0
2023-05-05T01:25:54.761Z,71.0
2023-05-05T01:30:54.745Z,70.0
2023-05-05T01:35:54.760Z,70.0
2023-05-05T01:40:54.766Z,71.0
2023-05-05T01:45:54.780Z,70.0
2023-05-05T01:50:54.767Z,70.0
2023-05-05T01:55:54.754Z,70.0
2023-05-05T02:00:54.801Z,70.0
2023-05-05T02:05:54.761Z,70.5
2023-05-05T02:10:54.772Z,70.5
2023-05-05T02:15:54.790Z,71.0
2023-05-05T02:20:54.771Z,71.0
2023-05-05T02:25:54.775Z,71.0
2023-05-05T02:30:54.776Z,71.0
2023-05-05T02:35:54.784Z,71.5
2023-05-05T02:40:54.779Z,71.5
2023-05-05T02:45:54.796Z,72.0
2023-05-05T02:50:54.773Z,72.5
2023-05-05T02:55:54.791Z,72.5
2023-05-05T03:00:54.783Z,72.5
2023-05-05T03:05:54.783Z,73.0
2023-05-05T03:10:54.788Z,73.0
2023-05-05T03:15:54.827Z,73.5
2023-05-05T03:20:54.793Z,74.0
2023-05-05T03:25:54.794Z,75.0
2023-05-05T03:30:54.796Z,76.0
2023-05-05T03:35:54.799Z,76.0
2023-05-05T03:40:54.785Z,77.0
2023-05-05T03:45:54.787Z,77.5
2023-05-05T03:50:54.807Z,77.5
2023-05-05T03:55:54.840Z,78.0
2023-05-05T04:00:54.799Z,79.0
2023-05-05T04:05:54.804Z,78.5
2023-05-05T04:10:54.815Z,79.0
2023-05-05T04:15:54.843Z,78.5
2023-05-05T04:20:54.810Z,79.0
2023-05-05T04:25:54.819Z,79.5
2023-05-05T04:30:54.908Z,79.5
2023-05-05T04:35:54.813Z,80.0
2023-05-05T04:40:54.814Z,80.0
2023-05-05T04:45:54.847Z,80.5
2023-05-05T04:50:54.802Z,80.5
2023-05-05T04:55:54.824Z,81.0
2023-05-05T05:00:54.820Z,81.0
2023-05-05T05:05:54.811Z,80.5
2023-05-05T05:10:54.840Z,81.0
2023-05-05T05:15:54.832Z,81.5
2023-05-05T05:20:54.829Z,82.0
2023-05-05T05:25:54.829Z,81.5
2023-05-05T05:30:54.832Z,82.0
2023-05-05T05:35:54.836Z,82.0
2023-05-05T05:40:54.835Z,82.0
2023-05-05T05:45:54.856Z,82.0
2023-05-05T05:50:54.831Z,82.0
2023-05-05T05:55:54.836Z,82.0
2023-05-05T06:00:54.839Z,82.5
2023-05-05T06:05:54.847Z,82.5
2023-05-05T06:10:54.849Z,82.5
2023-05-05T06:15:54.866Z,82.5
2023-05-05T06:20:54.861Z,83.0
2023-05-05T06:25:54.853Z,82.5
2023-05-05T06:30:54.846Z,83.0
2023-05-05T06:35:54.857Z,82.5
2023-05-05T06:40:54.861Z,82.5
2023-05-05T06:45:54.917Z,82.0
2023-05-05T06:50:54.900Z,81.0
2023-05-05T06:55:54.873Z,79.0
2023-05-05T07:00:54.949Z,77.5
2023-05-05T07:05:54.903Z,76.5
2023-05-05T07:10:54.891Z,75.0
2023-05-05T07:15:54.888Z,73.5
2023-05-05T07:20:54.899Z,72.0
2023-05-05T07:25:54.898Z,70.0
2023-05-05T07:30:54.911Z,70.0
2023-05-05T07:35:54.913Z,68.5
2023-05-05T07:40:54.901Z,68.0
2023-05-05T07:45:54.960Z,67.0
2023-05-05T07:50:54.909Z,65.5
2023-05-05T07:55:54.922Z,63.0
2023-05-05T08:00:54.914Z,63.0
2023-05-05T08:05:54.922Z,61.5
2023-05-05T08:10:54.946Z,61.0
2023-05-05T08:15:54.987Z,57.0
2023-05-05T08:20:54.935Z,55.0
2023-05-05T08:25:54.936Z,54.5
2023-05-05T08:30:54.933Z,55.0
2023-05-05T08:35:54.944Z,53.5
2023-05-05T08:40:54.971Z,51.5
2023-05-05T08:45:54.945Z,49.5
2023-05-05T08:50:55.914Z,50.5
2023-05-05T08:55:54.957Z,48.5
2023-05-05T09:00:54.974Z,48.0
2023-05-05T09:05:54.953Z,48.5
2023-05-05T09:10:54.964Z,46.0
2023-05-05T09:15:54.960Z,45.5
2023-05-05T09:20:55.462Z,46.5
2023-05-05T09:25:54.974Z,46.5
2023-05-05T09:30:55.039Z,46.0
2023-05-05T09:35:54.962Z,46.0
2023-05-05T09:40:54.973Z,45.5
2023-05-05T09:45:55.003Z,45.5
2023-05-05T09:50:55.022Z,45.0
2023-05-05T09:55:54.976Z,45.0
2023-05-05T10:00:54.995Z,45.0
2023-05-05T10:05:54.979Z,44.5
2023-05-05T10:10:54.975Z,44.0
2023-05-05T10:15:54.993Z,45.5
2023-05-05T10:20:54.985Z,46.0
2023-05-05T10:25:54.999Z,46.0
2023-05-05T10:30:54.987Z,46.5
2023-05-05T10:35:54.990Z,47.5
2023-05-05T10:40:54.994Z,47.5
2023-05-05T10:45:55.127Z,46.0
2023-05-05T10:50:55.001Z,47.0
2023-05-05T10:55:55.007Z,47.5
2023-05-05T11:00:55.018Z,48.0
2023-05-05T11:05:55.003Z,48.5
2023-05-05T11:10:55.006Z,49.0
2023-05-05T11:15:55.004Z,50.5
2023-05-05T11:20:55.013Z,55.5
2023-05-05T11:25:55.024Z,60.5
2023-05-05T11:30:55.106Z,65.0
2023-05-05T11:35:55.001Z,71.5
2023-05-05T11:40:55.015Z,74.0
2023-05-05T11:45:55.101Z,80.5
2023-05-05T11:50:54.999Z,82.0
2023-05-05T11:55:54.997Z,86.0
2023-05-05T12:00:55.002Z,88.0
2023-05-05T12:05:54.999Z,89.0
2023-05-05T12:10:54.998Z,92.0
2023-05-05T12:15:55.011Z,92.5
2023-05-05T12:20:54.991Z,94.5
2023-05-05T12:25:55.006Z,94.5
2023-05-05T12:30:55.260Z,95.0
2023-05-05T12:35:55.020Z,97.0
2023-05-05T12:40:55.007Z,96.5
2023-05-05T12:45:55.050Z,95.0
2023-05-05T12:50:55.029Z,94.0
2023-05-05T12:55:55.030Z,94.5
2023-05-05T13:00:55.190Z,95.0
2023-05-05T13:05:55.022Z,94.5
2023-05-05T13:10:55.033Z,95.0
2023-05-05T13:15:55.045Z,94.5
2023-05-05T13:20:55.043Z,95.0
2023-05-05T13:25:55.041Z,95.0
2023-05-05T13:30:55.063Z,96.0
2023-05-05T13:35:55.031Z,96.0
2023-05-05T13:40:55.034Z,96.5
2023-05-05T13:46:00.409Z,96.5
2023-05-05T13:50:55.053Z,97.0
2023-05-05T13:55:55.046Z,97.5
2023-05-05T14:00:55.094Z,100.0
2023-05-05T14:05:55.052Z,100.0
2023-05-05T14:10:55.079Z,100.0
2023-05-05T14:15:55.056Z,100.0
2023-05-05T14:20:55.054Z,100.0
2023-05-05T14:25:55.050Z,100.0
2023-05-05T14:30:55.048Z,100.0
2023-05-05T14:35:55.055Z,100.0
2023-05-05T14:40:55.058Z,100.0
2023-05-05T14:45:55.070Z,95.0
2023-05-05T14:50:55.069Z,89.5
2023-05-05T14:55:55.071Z,88.0
2023-05-05T15:00:55.101Z,87.0
2023-05-05T15:05:55.081Z,87.0
2023-05-05T15:10:55.078Z,86.0
2023-05-05T15:15:55.096Z,85.0
2023-05-05T15:20:55.071Z,85.5
2023-05-05T15:25:55.076Z,85.0
2023-05-05T15:30:55.074Z,84.0
2023-05-05T15:35:55.147Z,87.0
2023-05-05T15:40:55.083Z,86.0
2023-05-05T15:45:55.091Z,84.5
2023-05-05T15:50:55.093Z,84.0
2023-05-05T15:55:55.087Z,84.5
2023-05-05T16:00:55.170Z,82.0
2023-05-05T16:05:55.099Z,79.5
2023-05-05T16:10:55.108Z,77.0
2023-05-05T16:15:55.110Z,75.0
2023-05-05T16:20:55.099Z,74.5
2023-05-05T16:25:55.111Z,73.0
2023-05-05T16:30:55.100Z,72.5
2023-05-05T16:35:55.116Z,72.5
2023-05-05T16:40:55.155Z,72.0
2023-05-05T16:45:55.124Z,70.0
2023-05-05T16:50:55.120Z,71.0
2023-05-05T16:55:55.121Z,69.0
2023-05-05T17:00:55.121Z,68.0
2023-05-05T17:05:55.199Z,66.5
2023-05-05T17:10:55.132Z,67.0
2023-05-05T17:15:55.131Z,66.5
2023-05-05T17:20:55.131Z,66.0
2023-05-05T17:25:55.129Z,65.0
2023-05-05T17:30:55.152Z,66.5
2023-05-05T17:35:55.135Z,66.5
2023-05-05T17:40:55.148Z,64.5
2023-05-05T17:45:55.188Z,66.0
2023-05-05T17:50:55.148Z,64.5
2023-05-05T17:55:55.151Z,67.0
2023-05-05T18:00:55.150Z,68.5
2023-05-05T18:05:55.155Z,69.5
2023-05-05T18:10:55.151Z,71.0
2023-05-05T18:15:55.167Z,71.5
2023-05-05T18:20:55.162Z,73.0
2023-05-05T18:25:55.170Z,73.5
2023-05-05T18:30:55.171Z,74.5
2023-05-05T18:35:55.158Z,74.5
2023-05-05T18:40:55.176Z,75.0
2023-05-05T18:45:55.169Z,76.5
2023-05-05T18:50:55.169Z,77.0
2023-05-05T18:55:55.163Z,77.0
2023-05-05T19:00:55.210Z,78.5
2023-05-05T19:05:55.166Z,78.5
2023-05-05T19:10:55.176Z,80.0
2023-05-05T19:15:55.165Z,79.0
2023-05-05T19:20:55.162Z,80.0
2023-05-05T19:25:55.167Z,80.5
2023-05-05T19:30:55.173Z,81.5
2023-05-05T19:35:55.169Z,82.5
2023-05-05T19:40:55.168Z,83.5
2023-05-05T19:45:55.200Z,85.5
2023-05-05T19:50:55.167Z,86.0
2023-05-05T19:55:55.190Z,86.0
2023-05-05T20:00:55.172Z,85.5
2023-05-05T20:05:55.181Z,86.5
2023-05-05T20:10:55.177Z,88.5
2023-05-05T20:15:55.221Z,91.0
2023-05-05T20:20:55.192Z,91.5
2023-05-05T20:25:55.192Z,90.5
2023-05-05T20:30:55.179Z,90.5
2023-05-05T20:35:55.186Z,90.5
2023-05-05T20:40:55.201Z,91.5
2023-05-05T20:45:55.204Z,91.0
2023-05-05T20:50:55.198Z,91.0
2023-05-05T20:55:55.198Z,91.5
2023-05-05T21:00:55.270Z,92.5
2023-05-05T21:05:55.196Z,92.5
2023-05-05T21:10:55.194Z,92.0
2023-05-05T21:15:55.193Z,92.5
2023-05-05T21:20:55.197Z,93.0
2023-05-05T21:25:55.210Z,93.5
2023-05-05T21:31:19.598Z,93.5
2023-05-05T21:35:55.206Z,94.0
2023-05-05T21:40:55.209Z,94.5
2023-05-05T21:45:55.216Z,96.0
2023-05-05T21:50:55.232Z,100.0
2023-05-05T21:55:55.228Z,100.0
2023-05-05T22:00:55.207Z,100.0
2023-05-05T22:05:55.217Z,100.0
2023-05-05T22:10:55.213Z,100.0
2023-05-05T22:15:55.256Z,100.0
2023-05-05T22:20:55.212Z,100.0
2023-05-05T22:25:55.219Z,100.0
2023-05-05T22:30:55.219Z,100.0
2023-05-05T22:35:55.237Z,100.0
2023-05-05T22:40:55.228Z,100.0
2023-05-05T22:45:55.232Z,100.0
2023-05-05T22:50:55.219Z,100.0
2023-05-05T22:55:55.227Z,100.0
2023-05-05T23:00:55.279Z,100.0
2023-05-05T23:05:55.247Z,100.0
2023-05-05T23:10:55.244Z,100.0
2023-05-05T23:15:55.235Z,100.0
2023-05-05T23:20:55.236Z,100.0
2023-05-05T23:25:55.236Z,100.0
2023-05-05T23:30:55.266Z,100.0
2023-05-05T23:35:55.254Z,100.0
2023-05-05T23:40:55.250Z,100.0
2023-05-05T23:45:55.255Z,100.0
2023-05-05T23:50:55.240Z,100.0
2023-05-05T23:55:55.272Z,100.0
